Time;durP1;ratioP1;P1;durP2;ratioP2;P2;SDS_P1;SDS_P2;PMS_P1;PMS_P2;Temp;Humidity;BMP_temperature;BMP_pressure;BME280_temperature;BME280_humidity;BME280_pressure;Samples;Min_cycle;Max_cycle;Signal;HPM_P1;HPM_P2
2022/07/04 00:00:13;;;;;;;2.17;1.20;;;18.90;99.90;;;;;;5054992;28;20040;-75
2022/07/04 00:02:41;;;;;;;2.65;1.65;;;18.60;99.90;;;;;;5072823;28;20429;-75
2022/07/04 00:05:11;;;;;;;2.33;1.50;;;18.70;99.90;;;;;;5061796;28;20021;-75
2022/07/04 00:07:37;;;;;;;1.80;1.20;;;18.90;99.90;;;;;;5071091;28;20024;-74
2022/07/04 00:10:07;;;;;;;1.85;1.38;;;19.00;99.90;;;;;;5072746;28;20024;-74
2022/07/04 00:12:33;;;;;;;2.78;1.30;;;18.70;99.90;;;;;;5043001;28;20594;-75
2022/07/04 00:14:59;;;;;;;2.53;1.33;;;18.70;99.90;;;;;;5042720;28;20087;-74
2022/07/04 00:17:25;;;;;;;1.35;1.20;;;18.70;99.90;;;;;;5066193;28;20043;-74
2022/07/04 00:19:50;;;;;;;2.97;1.23;;;18.70;99.90;;;;;;5064614;28;20103;-74
2022/07/04 00:22:16;;;;;;;1.60;1.45;;;18.60;99.90;;;;;;5072087;28;20028;-74
2022/07/04 00:24:42;;;;;;;1.52;1.13;;;18.10;99.90;;;;;;5042676;28;20029;-75
2022/07/04 00:27:08;;;;;;;1.90;1.50;;;18.00;99.90;;;;;;5057795;28;20017;-74
2022/07/04 00:29:34;;;;;;;1.50;1.33;;;18.20;99.90;;;;;;5060738;28;20021;-74
2022/07/04 00:32:00;;;;;;;2.92;1.40;;;18.20;99.90;;;;;;5065315;28;20379;-74
2022/07/04 00:34:25;;;;;;;1.50;1.40;;;18.00;99.90;;;;;;5052307;28;20033;-74
2022/07/04 00:36:51;;;;;;;1.65;1.55;;;18.10;99.90;;;;;;5027880;28;20043;-75
2022/07/04 00:39:17;;;;;;;1.63;1.20;;;18.20;99.90;;;;;;5061044;28;20373;-74
2022/07/04 00:41:43;;;;;;;2.78;1.50;;;18.40;99.90;;;;;;5065101;28;20061;-73
2022/07/04 00:44:11;;;;;;;2.55;1.40;;;18.40;99.90;;;;;;5063192;28;20036;-73
2022/07/04 00:46:37;;;;;;;3.08;1.60;;;18.20;99.90;;;;;;5072122;28;20025;-73
2022/07/04 00:49:06;;;;;;;1.80;1.40;;;17.90;99.90;;;;;;5072473;28;20487;-74
2022/07/04 00:51:32;;;;;;;3.00;1.70;;;17.70;99.90;;;;;;5053444;28;20029;-73
2022/07/04 00:53:59;;;;;;;1.88;1.40;;;17.50;99.90;;;;;;5030265;28;20071;-73
2022/07/04 00:56:25;;;;;;;2.15;1.23;;;17.50;99.90;;;;;;5064301;28;20108;-73
2022/07/04 00:58:52;;;;;;;2.28;1.40;;;17.50;99.90;;;;;;5064093;28;20498;-73
2022/07/04 01:01:19;;;;;;;2.35;1.40;;;17.50;99.90;;;;;;5071331;28;20017;-73
2022/07/04 01:03:44;;;;;;;2.42;1.50;;;17.80;99.90;;;;;;5059765;28;20017;-74
2022/07/04 01:06:10;;;;;;;1.40;1.30;;;17.80;99.90;;;;;;5051878;28;20082;-74
2022/07/04 01:08:42;;;;;;;2.28;1.33;;;17.60;99.90;;;;;;5051728;28;20018;-74
2022/07/04 01:11:09;;;;;;;3.42;1.60;;;17.70;99.90;;;;;;5036663;28;20025;-72
2022/07/04 01:13:35;;;;;;;3.40;1.63;;;17.60;99.90;;;;;;5045464;28;20025;-73
2022/07/04 01:16:01;;;;;;;1.60;1.50;;;17.60;99.90;;;;;;5051788;28;20029;-74
2022/07/04 01:18:26;;;;;;;2.83;1.50;;;18.00;99.90;;;;;;5051946;28;20494;-75
2022/07/04 01:20:52;;;;;;;1.80;1.50;;;17.90;99.90;;;;;;5064278;28;20033;-75
2022/07/04 01:23:18;;;;;;;2.55;1.52;;;17.90;99.90;;;;;;5047113;28;20587;-73
2022/07/04 01:25:44;;;;;;;1.60;1.50;;;17.80;99.90;;;;;;5058316;28;20458;-73
2022/07/04 01:28:09;;;;;;;1.60;1.30;;;17.90;99.90;;;;;;5058413;28;20431;-73
2022/07/04 01:30:36;;;;;;;2.78;1.73;;;17.80;99.90;;;;;;5071079;28;20056;-74
2022/07/04 01:33:02;;;;;;;1.77;1.50;;;17.90;99.90;;;;;;5057777;28;20021;-74
2022/07/04 01:35:28;;;;;;;2.70;1.50;;;17.70;99.90;;;;;;5058635;28;20475;-75
2022/07/04 01:37:53;;;;;;;1.52;1.42;;;17.80;99.90;;;;;;5057870;28;20036;-74
2022/07/04 01:40:19;;;;;;;1.40;1.30;;;17.80;99.90;;;;;;5057919;28;20036;-74
2022/07/04 01:42:45;;;;;;;2.35;1.50;;;18.00;99.90;;;;;;5058153;28;20048;-75
2022/07/04 01:45:12;;;;;;;2.13;1.60;;;18.10;99.90;;;;;;5046473;28;20102;-75
2022/07/04 01:47:38;;;;;;;3.67;1.60;;;18.30;99.90;;;;;;5046952;28;20025;-75
2022/07/04 01:50:06;;;;;;;2.35;1.70;;;18.00;99.90;;;;;;5051483;28;20064;-75
2022/07/04 01:52:32;;;;;;;1.40;1.30;;;17.20;99.90;;;;;;5051071;28;20399;-75
2022/07/04 01:54:57;;;;;;;2.20;1.60;;;17.10;99.90;;;;;;5058678;28;20020;-75
2022/07/04 01:57:23;;;;;;;2.08;1.45;;;16.40;99.90;;;;;;5057113;28;20017;-76
2022/07/04 02:02:33;;;;;;;1.73;1.48;;;17.10;99.90;;;;;;5067698;28;20031;-75
2022/07/04 02:04:59;;;;;;;2.85;1.50;;;17.30;99.90;;;;;;5071222;28;20103;-74
2022/07/04 02:07:25;;;;;;;5.40;1.77;;;17.30;99.90;;;;;;5036953;28;20479;-75
2022/07/04 02:09:50;;;;;;;2.47;1.63;;;17.40;99.90;;;;;;5060948;28;20039;-74
2022/07/04 02:15:00;;;;;;;2.08;1.52;;;17.40;99.90;;;;;;5065225;28;20078;-73
2022/07/04 02:17:26;;;;;;;2.95;1.40;;;17.40;99.90;;;;;;5070469;28;20463;-73
2022/07/04 02:19:52;;;;;;;2.97;1.35;;;17.50;99.90;;;;;;5067670;28;20024;-73
2022/07/04 02:22:17;;;;;;;2.83;1.75;;;17.90;99.90;;;;;;5064973;28;20028;-73
2022/07/04 02:24:43;;;;;;;2.95;1.58;;;17.90;99.90;;;;;;5074524;28;20025;-73
2022/07/04 02:27:09;;;;;;;2.60;1.58;;;18.10;99.90;;;;;;5063200;28;20025;-75
2022/07/04 02:29:35;;;;;;;2.22;1.70;;;18.00;99.90;;;;;;5072971;28;20028;-75
2022/07/04 02:32:01;;;;;;;3.45;1.42;;;18.00;99.90;;;;;;5048618;28;20025;-75
2022/07/04 02:34:27;;;;;;;2.50;1.90;;;17.80;99.90;;;;;;5054948;28;20107;-75
2022/07/04 02:36:52;;;;;;;3.20;1.63;;;17.90;99.90;;;;;;5063678;28;20049;-74
2022/07/04 02:39:18;;;;;;;3.45;1.85;;;17.70;99.90;;;;;;5071079;28;20090;-74
2022/07/04 02:41:44;;;;;;;2.00;1.58;;;17.80;99.90;;;;;;5071038;28;20029;-73
2022/07/04 02:44:09;;;;;;;2.17;1.70;;;17.80;99.90;;;;;;5054150;28;20097;-74
2022/07/04 02:46:36;;;;;;;2.92;1.90;;;17.80;99.90;;;;;;5063353;28;20056;-73
2022/07/04 02:49:02;;;;;;;2.28;1.60;;;17.80;99.90;;;;;;5068247;28;20024;-74
2022/07/04 02:51:28;;;;;;;1.67;1.58;;;17.60;99.90;;;;;;5072562;28;20066;-73
2022/07/04 02:53:54;;;;;;;2.15;1.73;;;17.50;99.90;;;;;;5057628;28;20021;-73
2022/07/04 02:56:19;;;;;;;2.25;1.70;;;17.40;99.90;;;;;;5073413;28;20021;-73
2022/07/04 02:58:45;;;;;;;4.63;1.50;;;17.10;99.90;;;;;;5065889;28;20020;-73
2022/07/04 03:01:12;;;;;;;2.05;1.77;;;17.10;99.90;;;;;;5055003;28;20029;-74
2022/07/04 03:03:39;;;;;;;3.85;1.98;;;16.80;99.90;;;;;;5059398;28;20029;-74
2022/07/04 03:06:06;;;;;;;3.85;1.80;;;16.80;99.90;;;;;;5067682;28;20077;-74
2022/07/04 03:08:31;;;;;;;2.08;1.70;;;16.40;99.90;;;;;;5072751;28;20095;-74
2022/07/04 03:10:57;;;;;;;2.53;1.85;;;16.50;99.90;;;;;;5069805;28;20103;-75
2022/07/04 03:13:24;;;;;;;3.10;1.65;;;16.70;99.90;;;;;;5055765;28;20128;-75
2022/07/04 03:15:50;;;;;;;3.75;1.98;;;16.70;99.90;;;;;;5050628;28;20029;-75
2022/07/04 03:18:15;;;;;;;3.38;1.70;;;16.70;99.90;;;;;;5070161;28;20033;-74
2022/07/04 03:20:41;;;;;;;2.40;2.20;;;16.70;99.90;;;;;;5070240;28;20086;-74
2022/07/04 03:23:06;;;;;;;2.88;2.00;;;16.90;99.90;;;;;;5071726;28;20033;-73
2022/07/04 03:25:32;;;;;;;2.75;2.08;;;16.90;99.90;;;;;;5072570;28;20467;-74
2022/07/04 03:27:58;;;;;;;2.03;1.70;;;16.60;99.90;;;;;;5067842;28;20024;-73
2022/07/04 03:30:23;;;;;;;2.10;1.90;;;15.90;99.90;;;;;;5071891;28;20032;-74
2022/07/04 03:32:49;;;;;;;2.20;1.90;;;15.90;99.90;;;;;;5043756;28;20039;-73
2022/07/04 03:35:14;;;;;;;3.28;2.10;;;16.10;99.90;;;;;;5066885;28;20080;-73
2022/07/04 03:37:40;;;;;;;3.83;2.13;;;16.10;99.90;;;;;;5047375;28;20028;-73
2022/07/04 03:40:06;;;;;;;3.58;2.05;;;16.30;99.90;;;;;;5060175;28;20029;-73
2022/07/04 03:42:32;;;;;;;2.95;2.30;;;16.40;99.90;;;;;;5061198;28;20465;-75
2022/07/04 03:44:57;;;;;;;2.45;2.00;;;16.50;99.90;;;;;;5066680;28;20063;-74
2022/07/04 03:47:23;;;;;;;3.10;1.90;;;16.80;99.90;;;;;;5065308;28;20410;-75
2022/07/04 03:49:49;;;;;;;2.83;2.25;;;16.80;99.90;;;;;;5059920;28;20028;-74
2022/07/04 03:52:14;;;;;;;2.60;1.98;;;16.90;99.90;;;;;;5043047;28;20395;-75
2022/07/04 03:54:40;;;;;;;2.50;2.10;;;17.00;99.90;;;;;;5053458;28;20028;-73
2022/07/04 03:57:06;;;;;;;3.63;2.10;;;17.00;99.90;;;;;;5065100;28;20024;-74
2022/07/04 03:59:31;;;;;;;3.85;2.45;;;17.00;99.90;;;;;;5054588;28;20021;-73
2022/07/04 04:01:57;;;;;;;2.58;2.05;;;17.10;99.90;;;;;;5064435;28;20111;-74
2022/07/04 04:07:06;;;;;;;4.05;2.10;;;17.10;99.90;;;;;;5067166;28;20398;-73
2022/07/04 04:09:32;;;;;;;3.20;2.30;;;17.20;99.90;;;;;;5065636;28;20021;-74
2022/07/04 04:11:57;;;;;;;2.70;2.10;;;17.40;99.90;;;;;;5065769;28;20021;-75
2022/07/04 04:14:24;;;;;;;5.47;2.38;;;17.40;99.90;;;;;;5060107;28;20027;-73
2022/07/04 04:16:50;;;;;;;4.13;2.20;;;17.40;99.90;;;;;;5058513;28;20029;-73
2022/07/04 04:19:15;;;;;;;3.25;2.28;;;17.40;99.90;;;;;;5042534;28;20108;-74
2022/07/04 04:21:41;;;;;;;6.78;2.50;;;17.50;99.90;;;;;;5072133;28;20728;-74
2022/07/04 04:24:07;;;;;;;3.83;2.42;;;17.60;99.90;;;;;;5072558;28;20084;-73
2022/07/04 04:26:33;;;;;;;3.47;2.38;;;17.30;99.90;;;;;;5071774;28;20017;-75
2022/07/04 04:28:59;;;;;;;3.03;2.15;;;17.60;99.90;;;;;;5060226;28;20043;-75
2022/07/04 04:31:24;;;;;;;2.60;2.40;;;17.30;99.90;;;;;;5058573;28;20021;-75
2022/07/04 04:33:50;;;;;;;3.53;2.30;;;17.10;99.90;;;;;;5065307;28;20475;-75
2022/07/04 04:36:15;;;;;;;3.25;2.00;;;17.30;99.90;;;;;;5066303;28;20086;-74
2022/07/04 04:38:41;;;;;;;4.72;2.28;;;17.60;99.90;;;;;;5065583;28;20021;-74
2022/07/04 04:41:06;;;;;;;3.20;2.35;;;17.60;99.90;;;;;;5065057;28;20039;-73
2022/07/04 04:43:32;;;;;;;3.45;2.20;;;17.70;99.90;;;;;;5071735;28;20036;-73
2022/07/04 04:45:58;;;;;;;3.05;2.55;;;18.00;99.90;;;;;;5072271;28;20056;-75
2022/07/04 04:48:23;;;;;;;5.50;2.67;;;17.90;99.90;;;;;;5045643;28;20487;-75
2022/07/04 04:50:49;;;;;;;4.95;2.58;;;17.80;99.90;;;;;;5071721;28;20028;-75
2022/07/04 04:53:14;;;;;;;3.13;2.38;;;17.70;99.90;;;;;;5058769;28;20482;-74
2022/07/04 04:55:40;;;;;;;3.97;2.58;;;17.60;99.90;;;;;;5059015;28;20047;-75
2022/07/04 04:58:06;;;;;;;4.22;2.60;;;17.80;99.90;;;;;;5065326;28;20021;-75
2022/07/04 05:00:31;;;;;;;3.38;2.60;;;17.70;99.90;;;;;;5064327;28;20028;-75
2022/07/04 05:02:57;;;;;;;2.53;2.33;;;17.80;99.90;;;;;;5052051;28;20087;-74
2022/07/04 05:05:23;;;;;;;2.67;2.35;;;17.80;99.90;;;;;;5031735;28;20542;-74
2022/07/04 05:07:49;;;;;;;4.75;2.20;;;17.70;99.90;;;;;;5044151;28;20021;-74
2022/07/04 05:10:15;;;;;;;6.95;2.50;;;17.90;99.90;;;;;;5058103;28;20387;-74
2022/07/04 05:12:42;;;;;;;4.93;2.70;;;18.20;99.90;;;;;;5058333;28;20024;-74
2022/07/04 05:15:08;;;;;;;5.07;2.40;;;18.20;99.90;;;;;;5058295;28;20532;-75
2022/07/04 05:17:34;;;;;;;4.10;2.30;;;18.40;99.90;;;;;;5046967;28;20032;-72
2022/07/04 05:19:59;;;;;;;8.05;2.67;;;18.60;99.90;;;;;;5047257;28;20021;-73
2022/07/04 05:22:25;;;;;;;4.18;2.47;;;18.70;99.90;;;;;;5064788;28;20029;-73
2022/07/04 05:24:50;;;;;;;4.10;2.63;;;18.50;99.90;;;;;;5034165;28;20017;-73
2022/07/04 05:27:16;;;;;;;2.55;2.35;;;18.60;99.90;;;;;;5057899;28;20025;-73
2022/07/04 05:29:42;;;;;;;4.00;2.50;;;18.60;99.90;;;;;;5071481;28;20028;-73
2022/07/04 05:32:07;;;;;;;6.18;3.00;;;18.70;99.90;;;;;;5070892;28;20543;-73
2022/07/04 05:34:33;;;;;;;3.22;2.45;;;18.80;99.90;;;;;;5071404;28;20032;-73
2022/07/04 05:36:59;;;;;;;4.43;2.25;;;19.30;99.90;;;;;;5034063;28;20035;-73
2022/07/04 05:39:25;;;;;;;4.85;2.67;;;19.20;99.90;;;;;;5051492;28;20033;-73
2022/07/04 05:41:50;;;;;;;2.47;2.10;;;19.30;99.90;;;;;;5070154;28;20174;-73
2022/07/04 05:44:16;;;;;;;4.15;2.50;;;19.40;99.90;;;;;;5071312;28;20028;-73
2022/07/04 05:46:41;;;;;;;3.17;2.83;;;19.70;99.90;;;;;;5052071;28;20025;-73
2022/07/04 05:49:07;;;;;;;3.10;2.40;;;19.60;99.90;;;;;;5063822;28;20024;-73
2022/07/04 05:51:32;;;;;;;3.42;2.30;;;19.80;99.90;;;;;;5070842;28;20052;-73
2022/07/04 05:53:58;;;;;;;5.60;2.63;;;20.00;99.90;;;;;;5071284;28;20445;-74
2022/07/04 05:56:23;;;;;;;4.38;2.30;;;20.30;99.90;;;;;;5036605;28;20052;-74
2022/07/04 05:58:49;;;;;;;3.53;2.40;;;20.10;99.90;;;;;;5055425;28;20082;-74
2022/07/04 06:01:15;;;;;;;2.65;2.40;;;19.70;99.90;;;;;;5068234;28;20390;-74
2022/07/04 06:03:40;;;;;;;5.47;2.75;;;19.70;99.90;;;;;;5068039;28;20024;-76
2022/07/04 06:06:06;;;;;;;7.53;2.63;;;19.90;99.90;;;;;;5062018;28;20056;-75
2022/07/04 06:08:32;;;;;;;6.85;2.70;;;19.60;99.90;;;;;;5062569;28;20068;-75
2022/07/04 06:10:58;;;;;;;3.08;2.53;;;19.80;99.90;;;;;;5068047;28;20476;-74
2022/07/04 06:13:24;;;;;;;3.58;2.45;;;19.90;99.90;;;;;;5067652;28;20475;-75
2022/07/04 06:15:49;;;;;;;5.50;2.75;;;20.30;99.90;;;;;;5061605;28;20044;-75
2022/07/04 06:18:15;;;;;;;2.75;2.30;;;20.20;99.90;;;;;;5063046;28;20503;-74
2022/07/04 06:20:40;;;;;;;4.45;2.38;;;20.50;99.90;;;;;;5073138;28;20024;-71
2022/07/04 06:23:07;;;;;;;4.13;2.42;;;20.70;99.90;;;;;;5074842;28;20510;-72
2022/07/04 06:25:33;;;;;;;5.88;2.58;;;21.00;99.90;;;;;;5074757;28;20048;-73
2022/07/04 06:27:58;;;;;;;3.15;2.47;;;21.20;99.90;;;;;;5074726;28;20484;-72
2022/07/04 06:30:25;;;;;;;5.70;2.70;;;21.00;99.90;;;;;;5074136;28;20028;-72
2022/07/04 06:32:53;;;;;;;4.10;2.17;;;21.30;99.90;;;;;;5074713;28;20040;-72
2022/07/04 06:35:45;;;;;;;5.15;2.40;;;21.80;99.90;;;;;;5074424;28;20028;-71
2022/07/04 06:38:13;;;;;;;3.65;2.50;;;21.50;99.90;;;;;;5056745;28;20052;-72
2022/07/04 06:40:40;;;;;;;3.65;2.47;;;21.40;99.90;;;;;;5073908;28;20091;-72
2022/07/04 06:43:06;;;;;;;3.25;2.80;;;21.10;99.90;;;;;;5074453;28;20025;-72
2022/07/04 06:45:33;;;;;;;4.82;2.95;;;21.10;99.90;;;;;;5064483;28;20505;-72
2022/07/04 06:48:00;;;;;;;3.10;2.80;;;21.00;99.90;;;;;;5054486;28;20028;-72
2022/07/04 06:50:25;;;;;;;4.18;2.55;;;21.00;99.90;;;;;;5053815;28;20120;-72
2022/07/04 06:52:51;;;;;;;4.00;2.72;;;21.10;99.90;;;;;;5054283;28;20458;-72
2022/07/04 06:55:35;;;;;;;2.92;2.30;;;21.30;99.90;;;;;;5054192;28;20028;-72
2022/07/04 06:58:01;;;;;;;3.10;2.65;;;21.30;99.90;;;;;;5073692;28;20078;-72
2022/07/04 07:00:26;;;;;;;5.80;2.78;;;21.00;99.90;;;;;;5073738;28;20058;-72
2022/07/04 07:02:52;;;;;;;3.55;2.70;;;20.80;99.90;;;;;;5074146;28;20371;-72
2022/07/04 07:05:18;;;;;;;4.78;2.50;;;20.90;99.90;;;;;;5043573;28;20033;-72
2022/07/04 07:07:43;;;;;;;4.30;2.58;;;20.60;99.90;;;;;;5035638;28;20021;-72
2022/07/04 07:10:09;;;;;;;6.55;2.65;;;20.80;99.90;;;;;;5053967;28;20029;-72
2022/07/04 07:12:35;;;;;;;2.72;2.45;;;21.00;99.90;;;;;;5050985;28;20024;-72
2022/07/04 07:15:02;;;;;;;4.40;2.85;;;21.30;99.90;;;;;;5073935;28;20027;-72
2022/07/04 07:17:28;;;;;;;4.18;2.40;;;21.50;99.90;;;;;;5073941;28;20036;-72
2022/07/04 07:19:54;;;;;;;6.70;2.67;;;21.00;99.90;;;;;;5073879;28;20020;-72
2022/07/04 07:22:20;;;;;;;3.10;2.30;;;21.10;99.90;;;;;;5073056;28;20032;-72
2022/07/04 07:24:46;;;;;;;5.35;2.65;;;21.00;99.90;;;;;;5060747;28;20427;-72
2022/07/04 07:27:12;;;;;;;3.13;2.20;;;21.00;99.90;;;;;;5053616;28;20032;-72
2022/07/04 07:29:38;;;;;;;6.60;3.00;;;20.90;99.90;;;;;;5053757;28;20414;-72
2022/07/04 07:32:04;;;;;;;4.40;2.80;;;20.70;99.90;;;;;;5053020;28;20017;-72
2022/07/04 07:34:31;;;;;;;4.35;2.67;;;20.90;99.90;;;;;;5053318;28;20043;-72
2022/07/04 07:36:56;;;;;;;3.38;2.45;;;21.00;99.90;;;;;;5053528;28;20025;-72
2022/07/04 07:39:22;;;;;;;3.45;2.78;;;21.00;99.90;;;;;;5053456;28;20058;-72
2022/07/04 07:41:48;;;;;;;5.05;2.70;;;21.50;99.90;;;;;;5052738;28;20032;-72
2022/07/04 07:44:14;;;;;;;3.15;2.50;;;21.70;99.90;;;;;;5053455;28;20036;-72
2022/07/04 07:46:40;;;;;;;4.60;2.40;;;21.30;99.90;;;;;;5073335;28;20056;-72
2022/07/04 07:49:06;;;;;;;3.30;2.45;;;21.30;99.90;;;;;;5073356;28;20105;-72
2022/07/04 07:51:31;;;;;;;3.25;2.47;;;21.30;99.90;;;;;;5072530;28;20024;-72
2022/07/04 07:53:57;;;;;;;7.00;2.92;;;21.50;99.90;;;;;;5072818;28;20399;-72
2022/07/04 07:56:23;;;;;;;3.38;2.47;;;21.60;99.90;;;;;;5073094;28;20036;-72
2022/07/04 07:58:50;;;;;;;4.32;2.45;;;21.60;99.90;;;;;;5068952;28;20510;-72
2022/07/04 08:01:16;;;;;;;3.80;2.45;;;21.80;99.90;;;;;;5043712;28;20021;-72
2022/07/04 08:06:26;;;;;;;3.35;2.63;;;22.00;99.90;;;;;;5041686;28;20109;-72
2022/07/04 08:08:51;;;;;;;8.18;2.80;;;21.80;99.90;;;;;;5047826;28;20045;-72
2022/07/04 08:11:17;;;;;;;3.65;2.78;;;21.90;99.90;;;;;;5049211;28;20056;-72
2022/07/04 08:13:43;;;;;;;4.40;2.88;;;22.30;99.90;;;;;;5047795;28;20049;-72
2022/07/04 08:16:09;;;;;;;3.17;2.72;;;22.70;99.90;;;;;;5053844;28;20075;-72
2022/07/04 08:18:35;;;;;;;3.00;2.70;;;22.60;99.90;;;;;;5051839;28;20029;-72
2022/07/04 08:21:01;;;;;;;5.22;2.70;;;22.70;99.90;;;;;;5040535;28;20566;-72
2022/07/04 08:23:28;;;;;;;5.03;3.00;;;22.70;99.90;;;;;;5052523;28;20028;-72
2022/07/04 08:25:54;;;;;;;2.95;2.67;;;22.60;99.90;;;;;;5052391;28;20031;-72
2022/07/04 08:28:20;;;;;;;4.35;2.97;;;22.50;99.90;;;;;;5052570;28;20025;-72
2022/07/04 08:30:45;;;;;;;4.18;3.25;;;22.60;99.90;;;;;;5051785;28;20028;-72
2022/07/04 08:33:11;;;;;;;5.05;2.97;;;22.60;99.90;;;;;;5050848;28;20029;-72
2022/07/04 08:35:36;;;;;;;5.35;3.17;;;22.60;99.90;;;;;;5052525;28;20459;-72
2022/07/04 08:38:02;;;;;;;4.93;2.97;;;22.70;99.90;;;;;;5052310;28;20025;-72
2022/07/04 08:40:29;;;;;;;4.22;3.40;;;23.00;99.90;;;;;;5051692;28;20078;-72
2022/07/04 08:42:55;;;;;;;3.75;3.03;;;23.00;99.90;;;;;;5052176;28;20048;-72
2022/07/04 08:45:27;;;;;;;3.83;3.30;;;23.10;99.90;;;;;;5052165;28;20025;-72
2022/07/04 08:48:01;;;;;;;5.05;3.72;;;23.50;99.90;;;;;;5052075;28;20037;-72
2022/07/04 08:50:33;;;;;;;5.63;3.33;;;23.30;99.90;;;;;;5051607;28;20411;-72
2022/07/04 08:53:07;;;;;;;4.32;3.17;;;23.40;99.90;;;;;;5051984;28;20403;-72
2022/07/04 08:58:31;;;;;;;6.47;3.55;;;23.70;99.90;;;;;;5052163;28;20036;-72
2022/07/04 09:01:14;;;;;;;4.93;2.88;;;23.50;99.90;;;;;;5051386;28;20047;-72
2022/07/04 09:03:41;;;;;;;4.57;2.80;;;23.50;99.90;;;;;;5052045;28;20383;-72
2022/07/04 09:06:07;;;;;;;12.40;3.40;;;23.70;99.90;;;;;;5051804;28;20029;-72
2022/07/04 09:08:32;;;;;;;5.95;3.28;;;23.70;99.90;;;;;;5051831;28;20021;-72
2022/07/04 09:10:59;;;;;;;3.83;2.80;;;23.80;99.90;;;;;;5050734;28;20020;-72
2022/07/04 09:13:25;;;;;;;3.97;3.00;;;23.90;99.90;;;;;;5044557;28;20410;-72
2022/07/04 09:15:51;;;;;;;3.05;2.72;;;23.90;99.90;;;;;;5051702;28;20029;-72
2022/07/04 09:18:31;;;;;;;4.32;3.00;;;23.50;99.90;;;;;;5051793;28;20052;-72
2022/07/04 09:20:59;;;;;;;4.65;2.80;;;23.80;99.90;;;;;;5051036;28;20040;-72
2022/07/04 09:23:38;;;;;;;3.42;2.92;;;23.90;99.90;;;;;;5051480;28;20047;-72
2022/07/04 09:26:13;;;;;;;3.47;2.90;;;24.10;99.90;;;;;;5051643;28;20032;-72
2022/07/04 09:28:44;;;;;;;5.85;2.95;;;24.20;99.90;;;;;;5051487;28;20021;-72
2022/07/04 09:31:30;;;;;;;4.72;2.63;;;24.20;99.90;;;;;;5050781;28;20032;-72
2022/07/04 09:33:58;;;;;;;4.65;3.10;;;24.00;99.90;;;;;;5051388;28;20036;-72
2022/07/04 09:36:29;;;;;;;11.77;3.38;;;24.50;99.90;;;;;;5051448;28;20025;-72
2022/07/04 09:39:20;;;;;;;4.43;3.10;;;24.50;99.90;;;;;;5051517;28;20021;-72
2022/07/04 09:41:56;;;;;;;3.55;2.70;;;24.50;99.90;;;;;;5050703;28;20039;-72
2022/07/04 09:44:23;;;;;;;4.30;2.88;;;25.00;99.90;;;;;;5051418;28;20044;-72
2022/07/04 09:46:49;;;;;;;5.25;2.90;;;25.10;99.90;;;;;;5051317;28;20036;-72
2022/07/04 09:49:14;;;;;;;5.15;2.50;;;25.10;99.90;;;;;;5051427;28;20021;-72
2022/07/04 09:51:58;;;;;;;5.00;2.60;;;25.40;99.90;;;;;;5057415;28;20024;-72
2022/07/04 09:54:32;;;;;;;5.93;2.70;;;25.50;99.90;;;;;;5071139;28;20129;-71
2022/07/04 09:57:00;;;;;;;3.75;2.75;;;26.00;99.90;;;;;;5064802;28;20036;-71
2022/07/04 09:59:27;;;;;;;3.97;2.70;;;26.10;99.90;;;;;;5068731;28;20021;-72
2022/07/04 10:02:07;;;;;;;4.15;2.80;;;26.10;99.90;;;;;;5070661;28;20032;-72
2022/07/04 10:04:52;;;;;;;2.42;2.20;;;26.00;99.90;;;;;;5064868;28;20498;-72
2022/07/04 10:07:43;;;;;;;3.95;2.70;;;26.20;99.90;;;;;;5051123;28;20028;-71
2022/07/04 10:10:25;;;;;;;2.80;2.60;;;26.60;99.90;;;;;;5051108;28;20029;-72
2022/07/04 10:13:06;;;;;;;4.70;2.83;;;26.70;99.90;;;;;;5050997;28;20024;-72
2022/07/04 10:15:33;;;;;;;3.88;2.80;;;25.80;99.90;;;;;;5071229;28;20098;-72
2022/07/04 10:17:59;;;;;;;3.60;2.60;;;25.40;99.90;;;;;;5071102;28;20384;-72
2022/07/04 10:20:25;;;;;;;3.88;2.65;;;25.90;99.90;;;;;;5070453;28;20078;-72
2022/07/04 10:22:51;;;;;;;3.67;2.92;;;26.30;99.90;;;;;;5071097;28;20500;-72
2022/07/04 10:25:17;;;;;;;5.03;3.33;;;26.20;99.90;;;;;;5070923;28;20025;-71
2022/07/04 10:27:44;;;;;;;3.65;2.80;;;26.10;99.90;;;;;;5070939;28;20478;-72
2022/07/04 10:30:14;;;;;;;5.35;2.90;;;25.80;99.90;;;;;;5070827;28;20024;-71
2022/07/04 10:32:42;;;;;;;4.43;2.67;;;26.20;99.90;;;;;;5070820;28;20545;-72
2022/07/04 10:35:11;;;;;;;5.32;2.35;;;26.00;99.90;;;;;;5070867;28;20641;-72
2022/07/04 10:38:04;;;;;;;3.30;2.00;;;26.00;99.90;;;;;;5070921;28;20027;-72
2022/07/04 10:40:50;;;;;;;2.10;1.90;;;25.80;99.90;;;;;;5070286;28;20546;-72
2022/07/04 10:46:17;;;;;;;3.83;1.55;;;26.10;99.90;;;;;;5074548;28;20170;-72
2022/07/04 10:48:49;;;;;;;;;;;26.10;99.90;;;;;;5074329;28;20032;-72
2022/07/04 10:51:15;;;;;;;2.08;1.55;;;26.30;99.90;;;;;;5073719;28;19904;-72
2022/07/04 10:54:05;;;;;;;2.55;1.90;;;26.60;99.80;;;;;;5074319;28;20027;-72
2022/07/04 10:56:42;;;;;;;3.97;1.55;;;26.50;99.90;;;;;;5074343;28;20081;-71
2022/07/04 10:59:18;;;;;;;4.20;1.40;;;26.90;99.90;;;;;;5074276;28;20082;-72
2022/07/04 11:02:17;;;;;;;4.10;1.73;;;27.00;98.20;;;;;;5073598;28;20032;-72
2022/07/04 11:04:51;;;;;;;3.45;1.60;;;27.20;98.10;;;;;;5066316;28;20059;-72
2022/07/04 11:07:22;;;;;;;4.50;1.40;;;27.10;98.40;;;;;;5054029;28;20112;-71
2022/07/04 11:10:11;;;;;;;2.92;1.40;;;27.10;98.70;;;;;;5054036;28;20059;-71
2022/07/04 11:12:54;;;;;;;1.80;1.60;;;26.80;98.00;;;;;;5050811;28;20048;-71
2022/07/04 11:15:32;;;;;;;2.72;1.50;;;27.10;98.60;;;;;;5074005;28;20028;-71
2022/07/04 11:18:05;;;;;;;2.92;1.60;;;27.30;97.40;;;;;;5073966;28;20020;-71
2022/07/04 11:20:38;;;;;;;4.25;1.60;;;27.10;97.90;;;;;;5073286;28;20074;-72
2022/07/04 11:23:23;;;;;;;1.67;1.10;;;27.50;98.30;;;;;;5073862;28;20514;-72
2022/07/04 11:25:50;;;;;;;3.38;1.42;;;27.60;97.10;;;;;;5073683;28;20378;-72
2022/07/04 11:28:30;;;;;;;1.73;1.40;;;27.30;96.60;;;;;;5073786;28;20027;-71
2022/07/04 11:31:01;;;;;;;2.72;1.58;;;27.60;97.00;;;;;;5073094;28;20102;-71
2022/07/04 11:33:30;;;;;;;4.35;1.70;;;27.60;97.30;;;;;;5073421;28;20032;-71
2022/07/04 11:36:03;;;;;;;3.22;1.50;;;27.30;96.80;;;;;;5073548;28;20035;-71
2022/07/04 11:38:53;;;;;;;2.35;1.40;;;27.40;96.90;;;;;;5073481;28;20012;-71
2022/07/04 11:46:50;;;;;;;2.83;1.70;;;27.60;98.40;;;;;;5073288;28;20765;-71
2022/07/04 11:49:16;;;;;;;3.78;1.67;;;27.40;97.10;;;;;;5073299;28;20021;-71
2022/07/04 11:51:43;;;;;;;2.53;1.90;;;27.40;97.80;;;;;;5072639;28;20509;-71
2022/07/04 11:54:09;;;;;;;2.20;1.40;;;27.40;97.50;;;;;;5071880;28;20028;-71
2022/07/04 11:56:35;;;;;;;2.30;1.70;;;27.80;98.10;;;;;;5073262;28;20020;-71
2022/07/04 11:59:11;;;;;;;2.80;1.70;;;27.60;96.60;;;;;;5073102;28;20032;-72
2022/07/04 12:01:37;;;;;;;3.05;1.75;;;27.20;98.00;;;;;;5072479;28;20039;-71
2022/07/04 12:04:19;;;;;;;2.33;1.60;;;27.80;98.10;;;;;;5070827;28;20028;-71
2022/07/04 12:06:46;;;;;;;3.67;1.60;;;27.90;96.70;;;;;;5053165;28;20035;-71
2022/07/04 12:09:13;;;;;;;2.15;1.40;;;27.50;96.90;;;;;;5052932;28;20021;-72
2022/07/04 12:11:58;;;;;;;3.53;1.50;;;27.70;97.20;;;;;;5046339;28;20025;-71
2022/07/04 12:14:25;;;;;;;3.22;1.30;;;26.90;97.40;;;;;;5054110;28;20025;-71
2022/07/04 12:17:18;;;;;;;1.20;1.10;;;26.20;96.00;;;;;;5052763;28;20037;-71
2022/07/04 12:20:17;;;;;;;2.25;1.60;;;26.60;96.00;;;;;;5051325;28;20035;-72
2022/07/04 12:22:49;;;;;;;4.85;1.30;;;27.70;95.50;;;;;;5033211;28;20040;-71
2022/07/04 12:25:34;;;;;;;2.58;1.40;;;27.70;94.20;;;;;;5052450;28;20095;-71
2022/07/04 12:28:02;;;;;;;2.38;1.30;;;27.00;95.30;;;;;;5052704;28;20020;-71
2022/07/04 12:30:31;;;;;;;1.52;1.10;;;27.90;95.30;;;;;;5051884;28;20112;-71
2022/07/04 12:33:02;;;;;;;1.30;1.20;;;28.80;94.60;;;;;;5052493;28;20479;-71
2022/07/04 12:35:38;;;;;;;3.20;1.20;;;28.60;93.50;;;;;;5052722;28;20455;-71
2022/07/04 12:38:05;;;;;;;;;;;26.90;93.00;;;;;;5052934;28;20034;-72
2022/07/04 12:40:31;;;;;;;2.03;0.90;;;27.50;93.40;;;;;;5051805;28;19958;-71
2022/07/04 12:42:57;;;;;;;1.73;1.10;;;28.40;91.90;;;;;;5052076;28;20025;-72
2022/07/04 12:45:24;;;;;;;1.48;1.20;;;28.60;90.80;;;;;;5052224;28;20029;-72
2022/07/04 12:47:49;;;;;;;1.83;1.00;;;28.70;90.40;;;;;;5052144;28;20021;-72
2022/07/04 12:50:15;;;;;;;1.42;1.30;;;29.00;90.20;;;;;;5051736;28;20028;-71
2022/07/04 12:52:42;;;;;;;1.67;1.10;;;29.40;90.30;;;;;;5051778;28;20028;-72
2022/07/04 12:55:11;;;;;;;4.15;1.30;;;29.50;89.00;;;;;;5052040;28;20024;-72
2022/07/04 12:57:37;;;;;;;1.45;1.17;;;29.40;88.90;;;;;;5051983;28;20021;-71
2022/07/04 13:00:03;;;;;;;2.97;1.35;;;29.30;90.00;;;;;;5051987;28;20468;-71
2022/07/04 13:02:29;;;;;;;1.65;0.95;;;28.90;88.00;;;;;;5051242;28;20064;-71
2022/07/04 13:04:56;;;;;;;1.52;1.08;;;29.10;87.00;;;;;;5042205;28;20068;-71
2022/07/04 13:07:22;;;;;;;4.88;1.23;;;29.20;85.30;;;;;;5047993;28;20063;-72
2022/07/04 13:09:47;;;;;;;1.60;0.98;;;29.00;86.40;;;;;;5050001;28;20455;-71
2022/07/04 13:12:26;;;;;;;1.35;1.25;;;29.30;86.20;;;;;;5045965;28;20082;-71
2022/07/04 13:14:53;;;;;;;1.08;1.08;;;29.20;86.20;;;;;;5071761;28;20048;-72